createdAt,value
2019-04-23T00:02:35.995Z,7.53
2019-04-23T00:17:47.853Z,7.34
2019-04-23T00:28:10.303Z,7.26
2019-04-23T00:33:12.291Z,7.24
2019-04-23T00:43:17.089Z,7.13
2019-04-23T00:53:22.065Z,7.05
2019-04-23T00:58:32.010Z,7.03
2019-04-23T01:03:27.031Z,6.94
2019-04-23T01:08:29.728Z,6.88
2019-04-23T01:23:53.805Z,6.74
2019-04-23T01:29:14.013Z,6.72
2019-04-23T01:34:21.645Z,6.68
2019-04-23T01:39:15.774Z,6.68
2019-04-23T01:44:30.173Z,6.67
2019-04-23T01:49:39.170Z,6.63
2019-04-23T01:54:38.628Z,6.53
2019-04-23T01:59:38.959Z,6.49
2019-04-23T02:04:47.724Z,6.40
2019-04-23T02:09:48.399Z,6.35
2019-04-23T02:14:49.903Z,6.29
2019-04-23T02:20:06.591Z,6.28
2019-04-23T02:25:03.591Z,6.18
2019-04-23T02:30:15.851Z,6.15
2019-04-23T02:35:20.012Z,6.10
2019-04-23T02:40:32.840Z,6.10
2019-04-23T02:45:16.964Z,6.05
2019-04-23T02:55:41.818Z,6.00
2019-04-23T03:05:49.273Z,5.94
2019-04-23T03:10:53.519Z,5.88
2019-04-23T03:26:25.461Z,5.84
2019-04-23T03:41:29.553Z,5.82
2019-04-23T03:46:31.899Z,5.80
2019-04-23T03:51:43.457Z,5.84
2019-04-23T03:57:09.810Z,5.82
2019-04-23T04:01:46.309Z,5.85
2019-04-23T04:06:56.401Z,5.83
2019-04-23T04:11:47.600Z,5.87
2019-04-23T04:22:00.209Z,5.94
2019-04-23T04:27:19.494Z,5.98
2019-04-23T04:42:12.390Z,6.00
2019-04-23T04:47:31.729Z,5.96
2019-04-23T04:57:35.370Z,5.97
2019-04-23T05:12:34.936Z,6.18
2019-04-23T05:18:00.113Z,6.29
2019-04-23T05:28:09.640Z,6.61
2019-04-23T05:33:05.659Z,6.85
2019-04-23T05:43:03.346Z,7.03
2019-04-23T05:53:33.400Z,7.26
2019-04-23T05:58:25.078Z,7.57
2019-04-23T06:03:22.602Z,7.84
2019-04-23T06:08:32.085Z,8.05
2019-04-23T06:13:36.252Z,8.13
2019-04-23T06:18:38.548Z,8.22
2019-04-23T06:23:43.502Z,8.33
2019-04-23T06:28:40.347Z,8.44
2019-04-23T06:33:48.020Z,8.55
2019-04-23T06:38:55.108Z,8.73
2019-04-23T06:44:08.821Z,8.87
2019-04-23T06:49:02.068Z,8.98
2019-04-23T06:54:06.856Z,9.15
2019-04-23T06:59:07.690Z,9.18
2019-04-23T07:04:15.045Z,9.24
2019-04-23T07:14:14.789Z,9.70
2019-04-23T07:19:27.244Z,10.26
2019-04-23T07:24:24.504Z,10.80
2019-04-23T07:29:45.753Z,10.83
2019-04-23T07:34:28.215Z,11.35
2019-04-23T07:39:45.681Z,11.84
2019-04-23T07:44:48.539Z,12.58
2019-04-23T07:50:00.650Z,13.27
2019-04-23T07:55:02.962Z,13.66
2019-04-23T08:00:00.805Z,14.13
2019-04-23T08:05:11.696Z,14.49
2019-04-23T08:10:12.371Z,14.45
2019-04-23T08:15:16.429Z,14.69
2019-04-23T08:20:11.169Z,14.91
2019-04-23T08:25:31.911Z,15.12
2019-04-23T08:30:28.884Z,15.43
2019-04-23T08:35:34.039Z,15.56
2019-04-23T08:40:47.957Z,15.67
2019-04-23T08:45:57.832Z,15.27
2019-04-23T08:51:11.284Z,15.89
2019-04-23T08:56:01.993Z,16.09
2019-04-23T09:01:10.817Z,16.37
2019-04-23T09:06:16.048Z,16.10
2019-04-23T09:11:35.154Z,15.96
2019-04-23T09:16:28.720Z,15.87
2019-04-23T09:26:25.883Z,15.80
2019-04-23T09:37:06.342Z,15.77
2019-04-23T09:42:08.866Z,15.97
2019-04-23T09:47:19.843Z,16.07
2019-04-23T09:52:33.031Z,15.99
2019-04-23T09:57:24.408Z,15.79
2019-04-23T10:02:22.180Z,15.76
2019-04-23T10:07:23.855Z,15.85
2019-04-23T10:12:11.559Z,15.96
2019-04-23T10:17:13.933Z,15.92
2019-04-23T10:22:17.296Z,16.26
2019-04-23T10:27:19.038Z,16.75
2019-04-23T10:32:21.827Z,16.90
2019-04-23T10:37:34.171Z,17.12
2019-04-23T10:42:28.596Z,17.47
2019-04-23T11:08:38.357Z,18.40
2019-04-23T11:18:58.206Z,19.27
2019-04-23T11:23:51.992Z,19.79
2019-04-23T11:28:55.175Z,20.05
2019-04-23T11:34:01.214Z,20.47
2019-04-23T11:39:00.531Z,20.48
2019-04-23T11:44:14.505Z,20.78
2019-04-23T11:49:26.506Z,20.68
2019-04-23T11:54:17.530Z,20.60
2019-04-23T11:59:29.316Z,20.75
2019-04-23T12:04:48.641Z,20.69
2019-04-23T12:09:54.551Z,20.66
2019-04-23T12:15:15.512Z,19.96
2019-04-23T13:00:35.873Z,17.59
2019-04-23T13:10:32.301Z,17.65
2019-04-23T13:15:40.801Z,17.97
2019-04-23T13:56:39.532Z,17.59
2019-04-23T14:01:32.397Z,17.60
2019-04-23T14:06:46.472Z,17.57
2019-04-23T14:11:55.094Z,17.51
2019-04-23T14:16:48.485Z,17.53
2019-04-23T14:21:47.197Z,17.45
2019-04-23T14:26:46.270Z,17.30
2019-04-23T14:32:04.272Z,17.21
2019-04-23T14:42:20.581Z,17.04
2019-04-23T14:47:16.897Z,16.88
2019-04-23T14:52:16.889Z,16.73
2019-04-23T15:02:22.937Z,16.62
2019-04-23T15:07:31.225Z,16.62
2019-04-23T15:17:28.413Z,16.33
2019-04-23T15:22:43.971Z,16.22
2019-04-23T15:33:04.217Z,15.78
2019-04-23T15:38:24.799Z,15.72
2019-04-23T15:43:02.718Z,15.64
2019-04-23T15:48:06.482Z,15.52
2019-04-23T15:53:01.399Z,15.46
2019-04-23T16:02:44.397Z,15.31
2019-04-23T16:08:06.074Z,15.27
2019-04-23T16:13:18.431Z,15.19
2019-04-23T16:18:41.890Z,15.12
2019-04-23T16:23:42.351Z,15.07
2019-04-23T16:29:07.372Z,14.97
2019-04-23T16:34:05.098Z,14.85
2019-04-23T16:39:09.088Z,14.77
2019-04-23T16:44:11.625Z,14.66
2019-04-23T16:49:21.933Z,14.58
2019-04-23T16:54:22.048Z,14.53
2019-04-23T16:59:18.184Z,14.46
2019-04-23T17:04:24.394Z,14.42
2019-04-23T17:09:24.213Z,14.38
2019-04-23T17:14:23.172Z,14.31
2019-04-23T17:25:01.154Z,14.18
2019-04-23T17:29:41.736Z,14.15
2019-04-23T17:34:54.638Z,14.12
2019-04-23T17:40:09.797Z,14.03
2019-04-23T17:50:14.341Z,13.96
2019-04-23T17:55:13.070Z,13.93
2019-04-23T18:10:28.808Z,13.80
2019-04-23T18:15:17.740Z,13.76
2019-04-23T18:20:22.732Z,13.73
2019-04-23T18:25:30.913Z,13.68
2019-04-23T18:30:49.700Z,13.66
2019-04-23T18:35:38.986Z,13.61
2019-04-23T18:51:03.274Z,13.50
2019-04-23T18:56:11.320Z,13.44
2019-04-23T19:01:10.683Z,13.41
2019-04-23T19:11:51.193Z,13.33
2019-04-23T19:22:05.935Z,13.27
2019-04-23T19:37:02.558Z,13.13
2019-04-23T19:42:06.690Z,13.09
2019-04-23T19:52:18.768Z,13.05
2019-04-23T19:57:19.022Z,13.02
2019-04-23T20:02:31.973Z,12.98
2019-04-23T20:07:43.798Z,12.92
2019-04-23T20:12:28.456Z,12.91
2019-04-23T20:22:43.435Z,12.81
2019-04-23T20:27:42.938Z,12.75
2019-04-23T20:33:13.537Z,12.71
2019-04-23T20:38:25.281Z,12.63
2019-04-23T20:43:15.153Z,12.57
2019-04-23T20:48:08.809Z,12.51
2019-04-23T20:53:03.277Z,12.46
2019-04-23T20:58:20.925Z,12.41
2019-04-23T21:03:47.298Z,12.32
2019-04-23T21:13:53.532Z,12.17
2019-04-23T21:18:37.350Z,12.09
2019-04-23T21:23:45.466Z,12.03
2019-04-23T21:28:43.688Z,11.94
2019-04-23T21:44:08.605Z,11.75
2019-04-23T21:49:18.179Z,11.69
2019-04-23T21:54:01.819Z,11.65
2019-04-23T21:59:07.164Z,11.58
2019-04-23T22:04:33.137Z,11.52
2019-04-23T22:09:27.189Z,11.48
2019-04-23T22:14:27.547Z,11.46
2019-04-23T22:19:36.106Z,11.43
2019-04-23T22:24:24.880Z,11.42
2019-04-23T22:29:41.997Z,11.41
2019-04-23T22:34:46.857Z,11.37
2019-04-23T22:39:49.073Z,11.35
2019-04-23T22:45:00.701Z,11.30
2019-04-23T22:50:01.620Z,11.25
2019-04-23T22:55:01.992Z,11.18
2019-04-23T23:05:14.407Z,11.19
2019-04-23T23:10:14.086Z,11.21
2019-04-23T23:15:16.049Z,11.18
2019-04-23T23:20:21.097Z,11.15
2019-04-23T23:25:24.723Z,11.09
2019-04-23T23:30:27.747Z,11.09
2019-04-23T23:35:27.681Z,11.10
2019-04-23T23:40:36.173Z,11.08
2019-04-23T23:45:46.831Z,11.03
2019-04-23T23:50:54.648Z,11.01
2019-04-23T23:55:58.000Z,10.97
